Time,TemperatureF,DewpointF,PressureIn,WindDirection,WindDirectionDegrees,WindSpeedMPH,WindSpeedGustMPH,Humidity,HourlyPrecipIn,Conditions,Clouds,dailyrainin,SoftwareType,DateUTC
2013-10-20 00:07:00,40.5,28.4,30.03,North,-999,0.0,0.0,62,0.00,,,-99.99,FreeWX 2.04,2013-10-20 04:07:00,
2013-10-20 00:17:00,40.3,28.4,30.03,North,-999,0.0,0.0,62,0.00,,,-99.99,FreeWX 2.04,2013-10-20 04:17:00,
2013-10-20 00:27:00,39.9,28.0,30.03,North,-999,0.0,0.0,62,0.00,,,-99.99,FreeWX 2.04,2013-10-20 04:27:00,
2013-10-20 00:37:00,39.7,28.2,30.03,North,-999,0.0,0.0,63,0.00,,,-99.99,FreeWX 2.04,2013-10-20 04:37:00,
2013-10-20 00:47:00,39.4,27.9,30.03,North,-999,0.0,0.0,63,0.00,,,-99.99,FreeWX 2.04,2013-10-20 04:47:00,
2013-10-20 00:57:00,39.2,27.7,30.03,North,-999,0.0,0.0,63,0.00,,,-99.99,FreeWX 2.04,2013-10-20 04:57:00,
2013-10-20 01:07:00,39.0,27.5,30.03,North,-999,0.0,0.0,63,0.00,,,-99.99,FreeWX 2.04,2013-10-20 05:07:00,
2013-10-20 01:17:00,39.2,28.0,30.03,North,-999,0.0,0.0,64,0.00,,,-99.99,FreeWX 2.04,2013-10-20 05:17:00,
2013-10-20 01:27:00,39.0,28.2,30.03,North,-999,0.0,0.0,65,0.00,,,-99.99,FreeWX 2.04,2013-10-20 05:27:00,
2013-10-20 01:37:00,38.7,27.5,30.03,North,-999,0.0,0.0,64,0.00,,,-99.99,FreeWX 2.04,2013-10-20 05:37:00,
2013-10-20 01:47:00,38.3,27.5,30.03,North,-999,0.0,0.0,65,0.00,,,-99.99,FreeWX 2.04,2013-10-20 05:47:00,
2013-10-20 01:57:00,38.1,27.5,30.03,North,-999,0.0,0.0,65,0.00,,,-99.99,FreeWX 2.04,2013-10-20 05:57:00,
2013-10-20 02:07:00,37.9,27.3,30.03,North,-999,0.0,0.0,65,0.00,,,-99.99,FreeWX 2.04,2013-10-20 06:07:00,
2013-10-20 02:17:00,38.1,27.9,30.03,North,-999,0.0,0.0,66,0.00,,,-99.99,FreeWX 2.04,2013-10-20 06:17:00,
2013-10-20 02:27:00,38.1,28.2,30.03,North,-999,0.0,0.0,67,0.00,,,-99.99,FreeWX 2.04,2013-10-20 06:27:00,
2013-10-20 02:37:00,38.1,28.6,30.03,North,-999,0.0,0.0,68,0.00,,,-99.99,FreeWX 2.04,2013-10-20 06:37:00,
2013-10-20 02:47:00,38.1,28.6,30.03,North,-999,0.0,0.0,68,0.00,,,-99.99,FreeWX 2.04,2013-10-20 06:47:00,
2013-10-20 02:57:00,38.1,28.9,30.03,North,-999,0.0,0.0,69,0.00,,,-99.99,FreeWX 2.04,2013-10-20 06:57:00,
2013-10-20 03:07:00,38.3,29.3,30.03,North,-999,0.0,0.0,70,0.00,,,-99.99,FreeWX 2.04,2013-10-20 07:07:00,
2013-10-20 03:17:00,37.9,29.1,30.03,North,-999,0.0,0.0,70,0.00,,,-99.99,FreeWX 2.04,2013-10-20 07:17:00,
2013-10-20 03:27:00,37.6,29.1,30.03,North,-999,0.0,0.0,71,0.00,,,-99.99,FreeWX 2.04,2013-10-20 07:27:00,
2013-10-20 03:37:00,37.9,29.7,30.03,North,-999,0.0,0.0,72,0.00,,,-99.99,FreeWX 2.04,2013-10-20 07:37:00,
2013-10-20 03:47:00,38.1,30.2,30.03,North,-999,0.0,0.0,73,0.00,,,-99.99,FreeWX 2.04,2013-10-20 07:47:00,
2013-10-20 03:57:00,37.9,30.0,30.03,North,-999,0.0,0.0,73,0.00,,,-99.99,FreeWX 2.04,2013-10-20 07:57:00,
2013-10-20 04:07:00,37.4,29.3,30.03,North,-999,0.0,0.0,72,0.00,,,-99.99,FreeWX 2.04,2013-10-20 08:07:00,
2013-10-20 04:17:00,37.6,29.7,30.03,North,-999,0.0,0.0,73,0.00,,,-99.99,FreeWX 2.04,2013-10-20 08:17:00,
2013-10-20 04:27:00,37.6,29.7,30.03,North,-999,0.0,0.0,73,0.00,,,-99.99,FreeWX 2.04,2013-10-20 08:27:00,
2013-10-20 04:37:00,37.6,29.7,30.03,North,-999,0.0,0.0,73,0.00,,,-99.99,FreeWX 2.04,2013-10-20 08:37:00,
2013-10-20 04:47:00,37.4,29.5,30.03,North,-999,0.0,0.0,73,0.00,,,-99.99,FreeWX 2.04,2013-10-20 08:47:00,
2013-10-20 04:57:00,37.4,29.5,30.03,North,-999,0.0,0.0,73,0.00,,,-99.99,FreeWX 2.04,2013-10-20 08:57:00,
2013-10-20 05:07:00,37.4,29.5,30.03,North,-999,0.0,0.0,73,0.00,,,-99.99,FreeWX 2.04,2013-10-20 09:07:00,
2013-10-20 05:17:00,37.4,29.8,30.03,North,-999,0.0,0.0,74,0.00,,,-99.99,FreeWX 2.04,2013-10-20 09:17:00,
2013-10-20 05:27:00,37.4,29.8,30.03,North,-999,0.0,0.0,74,0.00,,,-99.99,FreeWX 2.04,2013-10-20 09:27:00,
2013-10-20 05:37:00,37.2,29.7,30.03,North,-999,0.0,0.0,74,0.00,,,-99.99,FreeWX 2.04,2013-10-20 09:37:00,
2013-10-20 05:47:00,37.0,29.1,30.03,North,-999,0.0,0.0,73,0.00,,,-99.99,FreeWX 2.04,2013-10-20 09:47:00,
2013-10-20 05:57:00,36.9,29.3,30.03,North,-999,0.0,0.0,74,0.00,,,-99.99,FreeWX 2.04,2013-10-20 09:57:00,
2013-10-20 06:07:00,36.9,29.3,30.03,North,-999,0.0,0.0,74,0.00,,,-99.99,FreeWX 2.04,2013-10-20 10:07:00,
2013-10-20 06:17:00,36.9,29.3,30.03,North,-999,0.0,0.0,74,0.00,,,-99.99,FreeWX 2.04,2013-10-20 10:17:00,
2013-10-20 06:27:00,36.9,29.3,30.03,North,-999,0.0,0.0,74,0.00,,,-99.99,FreeWX 2.04,2013-10-20 10:27:00,
2013-10-20 06:37:00,36.9,29.3,30.06,North,-999,0.0,0.0,74,0.00,,,-99.99,FreeWX 2.04,2013-10-20 10:37:00,
2013-10-20 06:47:00,36.7,29.1,30.06,North,-999,0.0,0.0,74,0.00,,,-99.99,FreeWX 2.04,2013-10-20 10:47:00,
2013-10-20 06:57:00,36.7,29.1,30.06,North,-999,0.0,0.0,74,0.00,,,-99.99,FreeWX 2.04,2013-10-20 10:57:00,
2013-10-20 07:07:00,36.7,29.1,30.06,North,-999,0.0,0.0,74,0.00,,,-99.99,FreeWX 2.04,2013-10-20 11:07:00,
2013-10-20 07:17:00,36.7,29.1,30.06,North,-999,0.0,0.0,74,0.00,,,-99.99,FreeWX 2.04,2013-10-20 11:17:00,
2013-10-20 07:27:00,36.7,29.1,30.06,North,-999,0.0,0.0,74,0.00,,,-99.99,FreeWX 2.04,2013-10-20 11:27:00,
2013-10-20 07:37:00,36.3,28.8,30.06,North,-999,0.0,0.0,74,0.00,,,-99.99,FreeWX 2.04,2013-10-20 11:37:00,
2013-10-20 07:47:00,36.3,28.8,30.06,North,-999,0.0,0.0,74,0.00,,,-99.99,FreeWX 2.04,2013-10-20 11:47:00,
2013-10-20 07:57:00,36.5,28.9,30.06,North,-999,0.0,0.0,74,0.00,,,-99.99,FreeWX 2.04,2013-10-20 11:57:00,
2013-10-20 08:07:00,36.7,29.1,30.06,North,-999,0.0,0.0,74,0.00,,,-99.99,FreeWX 2.04,2013-10-20 12:07:00,
2013-10-20 08:17:00,36.9,29.3,30.06,North,-999,0.0,0.0,74,0.00,,,-99.99,FreeWX 2.04,2013-10-20 12:17:00,
2013-10-20 08:27:00,36.9,29.3,30.06,North,-999,0.0,0.0,74,0.00,,,-99.99,FreeWX 2.04,2013-10-20 12:27:00,
2013-10-20 08:37:00,37.0,29.5,30.06,North,-999,0.0,0.0,74,0.00,,,-99.99,FreeWX 2.04,2013-10-20 12:37:00,
2013-10-20 08:47:00,37.4,30.2,30.06,North,-999,0.0,0.0,75,0.00,,,-99.99,FreeWX 2.04,2013-10-20 12:47:00,
2013-10-20 08:57:00,37.9,30.7,30.06,North,-999,0.0,0.0,75,0.00,,,-99.99,FreeWX 2.04,2013-10-20 12:57:00,
2013-10-20 09:07:00,38.1,30.9,30.09,North,-999,0.0,0.0,75,0.00,,,-99.99,FreeWX 2.04,2013-10-20 13:07:00,
2013-10-20 09:17:00,39.2,32.0,30.09,North,-999,0.0,0.0,75,0.00,,,-99.99,FreeWX 2.04,2013-10-20 13:17:00,
2013-10-20 09:27:00,40.5,33.3,30.09,North,-999,0.0,0.0,75,0.00,,,-99.99,FreeWX 2.04,2013-10-20 13:27:00,
2013-10-20 09:37:00,42.1,35.1,30.09,North,-999,0.0,0.0,76,0.00,,,-99.99,FreeWX 2.04,2013-10-20 13:37:00,
2013-10-20 09:47:00,43.5,36.5,30.09,North,-999,0.0,0.0,76,0.00,,,-99.99,FreeWX 2.04,2013-10-20 13:47:00,
2013-10-20 09:57:00,45.0,37.9,30.09,North,-999,0.0,0.0,76,0.00,,,-99.99,FreeWX 2.04,2013-10-20 13:57:00,
2013-10-20 10:07:00,46.4,39.2,30.09,North,-999,0.0,0.0,76,0.00,,,-99.99,FreeWX 2.04,2013-10-20 14:07:00,
2013-10-20 10:17:00,47.3,39.0,30.09,North,-999,0.0,0.0,73,0.00,,,-99.99,FreeWX 2.04,2013-10-20 14:17:00,
2013-10-20 10:27:00,48.4,35.6,30.09,North,-999,0.0,0.0,61,0.00,,,-99.99,FreeWX 2.04,2013-10-20 14:27:00,
2013-10-20 10:37:00,49.8,33.4,30.09,North,-999,0.0,0.0,53,0.00,,,-99.99,FreeWX 2.04,2013-10-20 14:37:00,
2013-10-20 10:47:00,50.7,29.7,30.09,North,-999,0.0,0.0,44,0.00,,,-99.99,FreeWX 2.04,2013-10-20 14:47:00,
2013-10-20 10:57:00,51.8,31.6,30.09,North,-999,0.0,0.0,46,0.00,,,-99.99,FreeWX 2.04,2013-10-20 14:57:00,
2013-10-20 11:07:00,52.5,24.3,30.09,North,-999,0.0,2.7,33,0.00,,,-99.99,FreeWX 2.04,2013-10-20 15:07:00,
2013-10-20 11:17:00,53.8,27.5,30.09,North,-999,0.0,3.6,36,0.00,,,-99.99,FreeWX 2.04,2013-10-20 15:17:00,
2013-10-20 11:27:00,55.4,26.1,30.09,North,-999,0.0,0.0,32,0.00,,,-99.99,FreeWX 2.04,2013-10-20 15:27:00,
2013-10-20 11:37:00,55.6,20.3,30.09,North,-999,0.0,3.1,25,0.00,,,-99.99,FreeWX 2.04,2013-10-20 15:37:00,
2013-10-20 11:47:00,56.3,21.0,30.09,North,-999,0.0,4.0,25,0.00,,,-99.99,FreeWX 2.04,2013-10-20 15:47:00,
2013-10-20 11:57:00,57.0,18.5,30.09,North,-999,0.0,3.1,22,0.00,,,-99.99,FreeWX 2.04,2013-10-20 15:57:00,
2013-10-20 12:07:00,58.3,19.6,30.09,North,-999,0.0,4.0,22,0.00,,,-99.99,FreeWX 2.04,2013-10-20 16:07:00,
2013-10-20 12:17:00,58.5,16.3,30.09,North,-999,0.0,0.0,19,0.00,,,-99.99,FreeWX 2.04,2013-10-20 16:17:00,
2013-10-20 12:27:00,59.0,16.9,30.09,North,-999,0.0,4.0,19,0.00,,,-99.99,FreeWX 2.04,2013-10-20 16:27:00,
2013-10-20 12:37:00,59.4,17.1,30.09,North,-999,0.0,4.5,19,0.00,,,-99.99,FreeWX 2.04,2013-10-20 16:37:00,
2013-10-20 12:47:00,60.4,18.0,30.09,North,-999,0.0,0.0,19,0.00,,,-99.99,FreeWX 2.04,2013-10-20 16:47:00,
2013-10-20 12:57:00,60.3,17.8,30.09,North,-999,0.0,4.5,19,0.00,,,-99.99,FreeWX 2.04,2013-10-20 16:57:00,
2013-10-20 13:07:00,61.2,18.5,30.09,North,-999,0.0,4.0,19,0.00,,,-99.99,FreeWX 2.04,2013-10-20 17:07:00,
2013-10-20 13:17:00,61.3,18.7,30.09,North,-999,0.0,5.4,19,0.00,,,-99.99,FreeWX 2.04,2013-10-20 17:17:00,
2013-10-20 13:27:00,61.3,18.7,30.09,North,-999,0.0,4.5,19,0.00,,,-99.99,FreeWX 2.04,2013-10-20 17:27:00,
2013-10-20 13:37:00,62.2,18.1,30.06,North,-999,0.0,4.5,18,0.00,,,-99.99,FreeWX 2.04,2013-10-20 17:37:00,
2013-10-20 13:47:00,62.4,18.3,30.06,North,-999,0.0,3.6,18,0.00,,,-99.99,FreeWX 2.04,2013-10-20 17:47:00,
2013-10-20 13:57:00,63.7,19.4,30.06,North,-999,0.0,2.7,18,0.00,,,-99.99,FreeWX 2.04,2013-10-20 17:57:00,
2013-10-20 14:07:00,63.5,19.2,30.06,North,-999,0.0,4.5,18,0.00,,,-99.99,FreeWX 2.04,2013-10-20 18:07:00,
2013-10-20 14:17:00,63.3,19.0,30.06,North,-999,0.0,5.4,18,0.00,,,-99.99,FreeWX 2.04,2013-10-20 18:17:00,
2013-10-20 14:27:00,63.9,19.6,30.06,North,-999,0.0,0.0,18,0.00,,,-99.99,FreeWX 2.04,2013-10-20 18:27:00,
2013-10-20 14:37:00,63.5,19.2,30.06,North,-999,0.0,3.6,18,0.00,,,-99.99,FreeWX 2.04,2013-10-20 18:37:00,
2013-10-20 14:47:00,64.4,19.9,30.06,North,-999,0.0,4.0,18,0.00,,,-99.99,FreeWX 2.04,2013-10-20 18:47:00,
2013-10-20 14:57:00,64.8,20.3,30.03,North,-999,0.0,0.0,18,0.00,,,-99.99,FreeWX 2.04,2013-10-20 18:57:00,
2013-10-20 15:07:00,64.0,19.8,30.03,North,-999,0.0,0.0,18,0.00,,,-99.99,FreeWX 2.04,2013-10-20 19:07:00,
2013-10-20 15:17:00,64.6,20.1,30.03,North,-999,0.0,6.7,18,0.00,,,-99.99,FreeWX 2.04,2013-10-20 19:17:00,
2013-10-20 15:27:00,64.0,19.8,30.03,North,-999,0.0,5.8,18,0.00,,,-99.99,FreeWX 2.04,2013-10-20 19:27:00,
2013-10-20 15:38:00,64.4,19.9,30.03,North,-999,0.0,0.0,18,0.00,,,-99.99,FreeWX 2.04,2013-10-20 19:38:00,
2013-10-20 15:48:00,63.5,19.2,30.03,North,-999,0.0,4.9,18,0.00,,,-99.99,FreeWX 2.04,2013-10-20 19:48:00,
2013-10-20 15:58:00,63.3,19.0,30.03,North,-999,0.0,3.6,18,0.00,,,-99.99,FreeWX 2.04,2013-10-20 19:58:00,
2013-10-20 16:08:00,63.3,19.0,30.03,North,-999,0.0,0.0,18,0.00,,,-99.99,FreeWX 2.04,2013-10-20 20:08:00,
2013-10-20 16:18:00,63.7,19.4,30.03,North,-999,0.0,0.0,18,0.00,,,-99.99,FreeWX 2.04,2013-10-20 20:18:00,
2013-10-20 16:28:00,63.3,19.0,30.03,North,-999,0.0,5.8,18,0.00,,,-99.99,FreeWX 2.04,2013-10-20 20:28:00,
2013-10-20 16:38:00,63.0,18.9,30.03,North,-999,0.0,0.0,18,0.00,,,-99.99,FreeWX 2.04,2013-10-20 20:38:00,
2013-10-20 16:48:00,62.4,18.3,30.03,North,-999,0.0,0.0,18,0.00,,,-99.99,FreeWX 2.04,2013-10-20 20:48:00,
2013-10-20 16:58:00,61.3,18.7,30.03,North,-999,0.0,0.0,19,0.00,,,-99.99,FreeWX 2.04,2013-10-20 20:58:00,
2013-10-20 17:08:00,60.4,18.0,30.03,North,-999,0.0,0.0,19,0.00,,,-99.99,FreeWX 2.04,2013-10-20 21:08:00,
2013-10-20 17:18:00,59.9,17.6,30.03,North,-999,0.0,0.0,19,0.00,,,-99.99,FreeWX 2.04,2013-10-20 21:18:00,
2013-10-20 17:28:00,59.4,17.1,30.03,North,-999,0.0,0.0,19,0.00,,,-99.99,FreeWX 2.04,2013-10-20 21:28:00,
2013-10-20 17:38:00,58.6,16.5,30.03,North,-999,0.0,0.0,19,0.00,,,-99.99,FreeWX 2.04,2013-10-20 21:38:00,
2013-10-20 17:48:00,58.5,16.3,30.03,North,-999,0.0,0.0,19,0.00,,,-99.99,FreeWX 2.04,2013-10-20 21:48:00,
2013-10-20 17:58:00,57.7,15.8,30.03,North,-999,0.0,0.0,19,0.00,,,-99.99,FreeWX 2.04,2013-10-20 21:58:00,
2013-10-20 18:08:00,57.2,15.3,30.03,North,-999,0.0,0.0,19,0.00,,,-99.99,FreeWX 2.04,2013-10-20 22:08:00,
2013-10-20 18:18:00,56.5,20.1,30.03,North,-999,0.0,0.0,24,0.00,,,-99.99,FreeWX 2.04,2013-10-20 22:18:00,
2013-10-20 18:28:00,55.2,19.9,30.03,North,-999,0.0,0.0,25,0.00,,,-99.99,FreeWX 2.04,2013-10-20 22:28:00,
2013-10-20 18:38:00,54.3,19.2,30.03,North,-999,0.0,0.0,25,0.00,,,-99.99,FreeWX 2.04,2013-10-20 22:38:00,
2013-10-20 18:48:00,53.6,19.6,30.03,North,-999,0.0,0.0,26,0.00,,,-99.99,FreeWX 2.04,2013-10-20 22:48:00,
2013-10-20 18:58:00,52.7,18.9,30.03,North,-999,0.0,0.0,26,0.00,,,-99.99,FreeWX 2.04,2013-10-20 22:58:00,
2013-10-20 19:08:00,52.0,19.0,30.03,North,-999,0.0,0.0,27,0.00,,,-99.99,FreeWX 2.04,2013-10-20 23:08:00,
2013-10-20 19:45:00,49.6,19.4,30.03,North,-999,0.0,0.0,30,0.00,,,-99.99,FreeWX 2.04,2013-10-20 23:45:00,
2013-10-20 19:55:00,48.9,21.7,30.03,North,-999,0.0,0.0,34,0.00,,,-99.99,FreeWX 2.04,2013-10-20 23:55:00,
2013-10-20 20:05:00,48.6,23.5,30.03,North,-999,0.0,0.0,37,0.00,,,-99.99,FreeWX 2.04,2013-10-21 00:05:00,
2013-10-20 20:15:00,48.0,23.0,30.03,North,-999,0.0,0.0,37,0.00,,,-99.99,FreeWX 2.04,2013-10-21 00:15:00,
2013-10-20 20:25:00,47.7,22.6,30.03,North,-999,0.0,0.0,37,0.00,,,-99.99,FreeWX 2.04,2013-10-21 00:25:00,
2013-10-20 20:35:00,47.1,22.3,30.06,North,-999,0.0,0.0,37,0.00,,,-99.99,FreeWX 2.04,2013-10-21 00:35:00,
2013-10-20 20:45:00,46.6,22.3,30.06,North,-999,0.0,0.0,38,0.00,,,-99.99,FreeWX 2.04,2013-10-21 00:45:00,
2013-10-20 20:55:00,46.2,22.6,30.06,North,-999,0.0,0.0,39,0.00,,,-99.99,FreeWX 2.04,2013-10-21 00:55:00,
2013-10-20 21:05:00,46.0,23.0,30.06,North,-999,0.0,0.0,40,0.00,,,-99.99,FreeWX 2.04,2013-10-21 01:05:00,
2013-10-20 21:15:00,45.5,22.6,30.06,North,-999,0.0,0.0,40,0.00,,,-99.99,FreeWX 2.04,2013-10-21 01:15:00,
2013-10-20 21:25:00,45.1,22.8,30.06,North,-999,0.0,0.0,41,0.00,,,-99.99,FreeWX 2.04,2013-10-21 01:25:00,
2013-10-20 21:35:00,45.0,25.0,30.06,North,-999,0.0,0.0,45,0.00,,,-99.99,FreeWX 2.04,2013-10-21 01:35:00,
2013-10-20 21:45:00,44.6,24.1,30.06,North,-999,0.0,0.0,44,0.00,,,-99.99,FreeWX 2.04,2013-10-21 01:45:00,
2013-10-20 21:56:00,44.2,23.2,30.06,North,-999,0.0,0.0,43,0.00,,,-99.99,FreeWX 2.04,2013-10-21 01:56:00,
2013-10-20 22:06:00,44.1,23.5,30.06,North,-999,0.0,0.0,44,0.00,,,-99.99,FreeWX 2.04,2013-10-21 02:06:00,
2013-10-20 22:16:00,43.7,23.7,30.06,North,-999,0.0,0.0,45,0.00,,,-99.99,FreeWX 2.04,2013-10-21 02:16:00,
2013-10-20 22:26:00,43.3,23.9,30.06,North,-999,0.0,0.0,46,0.00,,,-99.99,FreeWX 2.04,2013-10-21 02:26:00,
2013-10-20 22:36:00,43.2,24.3,30.06,North,-999,0.0,0.0,47,0.00,,,-99.99,FreeWX 2.04,2013-10-21 02:36:00,
2013-10-20 22:46:00,43.0,24.6,30.06,North,-999,0.0,0.0,48,0.00,,,-99.99,FreeWX 2.04,2013-10-21 02:46:00,
2013-10-20 22:56:00,42.6,24.3,30.06,North,-999,0.0,0.0,48,0.00,,,-99.99,FreeWX 2.04,2013-10-21 02:56:00,
2013-10-20 23:06:00,42.1,23.4,30.06,North,-999,0.0,0.0,47,0.00,,,-99.99,FreeWX 2.04,2013-10-21 03:06:00,
2013-10-20 23:16:00,41.9,23.7,30.06,North,-999,0.0,0.0,48,0.00,,,-99.99,FreeWX 2.04,2013-10-21 03:16:00,
2013-10-20 23:26:00,41.5,23.4,30.06,North,-999,0.0,0.0,48,0.00,,,-99.99,FreeWX 2.04,2013-10-21 03:26:00,
2013-10-20 23:36:00,41.5,23.4,30.03,North,-999,0.0,0.0,48,0.00,,,-99.99,FreeWX 2.04,2013-10-21 03:36:00,
2013-10-20 23:46:00,41.4,23.2,30.03,North,-999,0.0,0.0,48,0.00,,,-99.99,FreeWX 2.04,2013-10-21 03:46:00,
2013-10-20 23:56:00,41.4,23.7,30.06,North,-999,0.0,0.0,49,0.00,,,-99.99,FreeWX 2.04,2013-10-21 03:56:00,